Time;durP1;ratioP1;P1;durP2;ratioP2;P2;SDS_P1;SDS_P2;PMS_P1;PMS_P2;Temp;Humidity;BMP_temperature;BMP_pressure;BME280_temperature;BME280_humidity;BME280_pressure;Samples;Min_cycle;Max_cycle;Signal;HPM_P1;HPM_P2
2022/01/27 00:05:55;;;;;;;0.43;0.43;;;;;24.10;99969.00;;;;5088628;28;20036;-79
2022/01/27 00:08:32;;;;;;;0.00;0.00;;;;;24.10;99934.00;;;;5089540;28;20483;-78
2022/01/27 00:11:08;;;;;;;0.77;0.70;;;;;24.10;99922.00;;;;5088342;28;20044;-75
2022/01/27 00:13:47;;;;;;;0.00;0.00;;;;;24.00;99911.00;;;;5086841;28;20039;-81
2022/01/27 00:16:30;;;;;;;0.00;0.00;;;;;24.00;99932.00;;;;5086843;28;20525;-78
2022/01/27 00:19:00;;;;;;;0.00;0.00;;;;;23.90;99925.00;;;;5086652;28;20113;-83
2022/01/27 00:21:31;;;;;;;0.00;0.00;;;;;23.80;99917.00;;;;5088563;28;20502;-77
2022/01/27 00:24:02;;;;;;;1.98;1.88;;;;;23.70;99903.00;;;;5080218;28;20048;-79
2022/01/27 00:26:31;;;;;;;0.00;0.00;;;;;23.60;99892.00;;;;5089170;28;20056;-83
2022/01/27 00:29:00;;;;;;;0.00;0.00;;;;;23.50;99897.00;;;;5078444;28;20149;-78
2022/01/27 00:31:30;;;;;;;0.10;0.10;;;;;23.40;99922.00;;;;5068932;28;20044;-78
2022/01/27 00:34:03;;;;;;;3.20;1.20;;;;;23.40;99920.00;;;;5068230;28;20044;-82
2022/01/27 00:36:34;;;;;;;0.00;0.00;;;;;23.30;99906.00;;;;5073870;28;20067;-81
2022/01/27 00:39:03;;;;;;;0.00;0.00;;;;;23.30;99894.00;;;;5088269;28;20055;-80
2022/01/27 00:41:33;;;;;;;0.00;0.00;;;;;23.20;99895.00;;;;5088248;28;20032;-79
2022/01/27 00:44:03;;;;;;;0.00;0.00;;;;;23.00;99886.00;;;;5085011;28;20128;-80
2022/01/27 00:46:35;;;;;;;0.00;0.00;;;;;23.00;99887.00;;;;5088826;28;20047;-81
2022/01/27 00:49:05;;;;;;;0.00;0.00;;;;;23.00;99901.00;;;;5085645;28;20040;-81
2022/01/27 00:51:37;;;;;;;0.10;0.00;;;;;22.90;99875.00;;;;5088009;28;20056;-81
2022/01/27 00:54:14;;;;;;;0.00;0.00;;;;;22.80;99875.00;;;;5089207;28;20043;-83
2022/01/27 00:57:02;;;;;;;0.00;0.00;;;;;22.80;99881.00;;;;5086041;28;20048;-80
2022/01/27 00:59:41;;;;;;;0.00;0.00;;;;;22.80;99866.00;;;;5087464;28;20040;-81
2022/01/27 01:02:19;;;;;;;0.00;0.00;;;;;22.70;99862.00;;;;5086539;28;20040;-80
2022/01/27 01:05:01;;;;;;;0.00;0.00;;;;;22.70;99863.00;;;;5086194;28;20036;-79
2022/01/27 01:07:35;;;;;;;0.00;0.00;;;;;22.60;99874.00;;;;5086752;28;20066;-80
2022/01/27 01:15:48;;;;;;;0.00;0.00;;;;;22.50;99834.00;;;;5067364;28;20056;-79
2022/01/27 01:34:58;;;;;;;0.00;0.00;;;;;22.50;99825.00;;;;5067698;28;20052;-79
2022/01/27 01:37:28;;;;;;;0.00;0.00;;;;;22.60;99819.00;;;;5067855;28;20068;-80
2022/01/27 01:39:58;;;;;;;0.00;0.00;;;;;22.50;99807.00;;;;5068845;28;20051;-79
2022/01/27 01:42:27;;;;;;;0.00;0.00;;;;;22.50;99807.00;;;;5068293;28;20045;-80
2022/01/27 01:45:04;;;;;;;0.00;0.00;;;;;22.50;99796.00;;;;5067824;28;20123;-79
2022/01/27 01:47:34;;;;;;;0.00;0.00;;;;;22.50;99789.00;;;;5067564;28;20040;-81
2022/01/27 01:50:07;;;;;;;0.00;0.00;;;;;22.50;99809.00;;;;5067119;28;20089;-79
2022/01/27 01:52:38;;;;;;;0.00;0.00;;;;;22.50;99808.00;;;;5067544;28;20067;-79
2022/01/27 01:55:08;;;;;;;0.00;0.00;;;;;22.50;99794.00;;;;5066219;28;20052;-79
2022/01/27 01:57:38;;;;;;;0.00;0.00;;;;;22.50;99793.00;;;;5065974;28;20526;-79
2022/01/27 02:00:09;;;;;;;0.00;0.00;;;;;22.50;99802.00;;;;5067879;28;20056;-80
2022/01/27 02:02:40;;;;;;;0.00;0.00;;;;;22.50;99820.00;;;;5067618;28;20052;-80
2022/01/27 02:05:11;;;;;;;0.00;0.00;;;;;22.50;99811.00;;;;5067293;28;20386;-80
2022/01/27 02:08:28;;;;;;;0.00;0.00;;;;;22.50;99826.00;;;;5067379;28;20056;-80
2022/01/27 02:19:23;;;;;;;0.00;0.00;;;;;22.50;99838.00;;;;5066591;28;20071;-80
2022/01/27 02:21:58;;;;;;;0.00;0.00;;;;;22.50;99840.00;;;;5067189;28;20056;-80
2022/01/27 02:24:32;;;;;;;0.00;0.00;;;;;22.50;99839.00;;;;5066960;28;20659;-80
2022/01/27 02:27:03;;;;;;;0.00;0.00;;;;;22.50;99832.00;;;;5066349;28;20454;-80
2022/01/27 02:29:33;;;;;;;0.00;0.00;;;;;22.40;99827.00;;;;5066109;28;20049;-80
2022/01/27 02:32:03;;;;;;;0.00;0.00;;;;;22.50;99831.00;;;;5067242;28;20041;-79
2022/01/27 02:34:33;;;;;;;0.00;0.00;;;;;22.50;99845.00;;;;5066764;28;20059;-79
2022/01/27 02:37:03;;;;;;;0.00;0.00;;;;;22.50;99844.00;;;;5066804;28;20419;-80
2022/01/27 02:39:32;;;;;;;0.00;0.00;;;;;22.50;99844.00;;;;5066605;28;20055;-79
2022/01/27 02:42:16;;;;;;;0.00;0.00;;;;;22.50;99860.00;;;;5067118;28;20098;-80
2022/01/27 02:44:54;;;;;;;0.00;0.00;;;;;22.60;99866.00;;;;5067414;28;20046;-80
2022/01/27 02:47:25;;;;;;;4.32;4.13;;;;;22.60;99859.00;;;;5081530;28;20041;-79
2022/01/27 02:49:55;;;;;;;0.00;0.00;;;;;22.60;99874.00;;;;5066621;28;20044;-79
2022/01/27 02:52:25;;;;;;;0.00;0.00;;;;;22.50;99876.00;;;;5067128;28;20044;-80
2022/01/27 02:54:55;;;;;;;0.00;0.00;;;;;22.50;99876.00;;;;5066604;28;20052;-80
2022/01/27 02:57:25;;;;;;;0.00;0.00;;;;;22.60;99866.00;;;;5065258;28;20412;-80
2022/01/27 02:59:55;;;;;;;0.00;0.00;;;;;22.60;99866.00;;;;5066614;28;20460;-79
2022/01/27 03:02:26;;;;;;;0.00;0.00;;;;;22.50;99876.00;;;;5067173;28;20047;-80
2022/01/27 03:04:57;;;;;;;0.00;0.00;;;;;22.50;99885.00;;;;5066265;28;20075;-79
2022/01/27 03:07:27;;;;;;;0.00;0.00;;;;;22.50;99881.00;;;;5066632;28;20052;-80
2022/01/27 03:09:56;;;;;;;0.00;0.00;;;;;22.60;99889.00;;;;5065982;28;20048;-80
2022/01/27 03:12:28;;;;;;;0.00;0.00;;;;;22.60;99898.00;;;;5066870;28;20044;-79
2022/01/27 03:14:58;;;;;;;0.00;0.00;;;;;22.60;99908.00;;;;5066591;28;20040;-79
2022/01/27 03:17:28;;;;;;;0.00;0.00;;;;;22.70;99905.00;;;;5066590;28;20553;-80
2022/01/27 03:19:57;;;;;;;0.00;0.00;;;;;22.60;99920.00;;;;5066737;28;20063;-79
2022/01/27 03:22:26;;;;;;;0.00;0.00;;;;;22.70;99919.00;;;;5066500;28;20048;-79
2022/01/27 03:24:56;;;;;;;0.00;0.00;;;;;22.60;99905.00;;;;5067387;28;20033;-79
2022/01/27 03:27:27;;;;;;;0.00;0.00;;;;;22.60;99906.00;;;;5066216;28;20093;-79
2022/01/27 03:29:57;;;;;;;0.00;0.00;;;;;22.70;99914.00;;;;5066555;28;20662;-79
2022/01/27 03:32:27;;;;;;;0.00;0.00;;;;;22.70;99916.00;;;;5070663;28;20071;-79
2022/01/27 03:34:56;;;;;;;0.00;0.00;;;;;22.80;99914.00;;;;5070511;28;20106;-79
2022/01/27 03:37:25;;;;;;;0.00;0.00;;;;;22.80;99902.00;;;;5070285;28;20513;-80
2022/01/27 03:39:55;;;;;;;0.00;0.00;;;;;22.80;99910.00;;;;5070627;28;20083;-79
2022/01/27 03:42:25;;;;;;;0.00;0.00;;;;;22.80;99906.00;;;;5069970;28;20446;-79
2022/01/27 03:44:55;;;;;;;0.00;0.00;;;;;22.80;99903.00;;;;5070320;28;20116;-79
2022/01/27 03:47:24;;;;;;;0.00;0.00;;;;;22.90;99898.00;;;;5070134;28;20740;-79
2022/01/27 03:49:53;;;;;;;0.00;0.00;;;;;22.80;99872.00;;;;5069858;28;20040;-79
2022/01/27 03:52:23;;;;;;;0.00;0.00;;;;;22.80;99881.00;;;;5070264;28;20051;-79
2022/01/27 03:54:52;;;;;;;0.00;0.00;;;;;22.90;99882.00;;;;5070120;28;20036;-78
2022/01/27 03:57:21;;;;;;;0.00;0.00;;;;;22.80;99871.00;;;;5068825;28;20436;-78
2022/01/27 03:59:51;;;;;;;0.00;0.00;;;;;22.80;99878.00;;;;5070463;28;20083;-78
2022/01/27 04:02:20;;;;;;;0.00;0.00;;;;;22.90;99862.00;;;;5069522;28;20418;-78
2022/01/27 04:04:50;;;;;;;0.00;0.00;;;;;22.90;99867.00;;;;5069835;28;20045;-78
2022/01/27 04:07:19;;;;;;;0.00;0.00;;;;;23.00;99870.00;;;;5069409;28;20062;-78
2022/01/27 04:09:49;;;;;;;0.00;0.00;;;;;22.90;99879.00;;;;5069564;28;20047;-78
2022/01/27 04:12:18;;;;;;;0.00;0.00;;;;;22.90;99865.00;;;;5068149;28;20055;-78
2022/01/27 04:14:47;;;;;;;0.00;0.00;;;;;23.00;99872.00;;;;5069034;28;20083;-78
2022/01/27 04:17:17;;;;;;;0.00;0.00;;;;;22.90;99866.00;;;;5070745;28;20048;-78
2022/01/27 04:19:46;;;;;;;0.00;0.00;;;;;22.90;99876.00;;;;5069834;28;20117;-78
2022/01/27 04:22:16;;;;;;;0.00;0.00;;;;;22.90;99876.00;;;;5069120;28;20060;-78
2022/01/27 04:24:45;;;;;;;0.00;0.00;;;;;23.00;99876.00;;;;5069461;28;20485;-78
2022/01/27 04:27:20;;;;;;;0.00;0.00;;;;;23.00;99861.00;;;;5069373;28;20048;-78
2022/01/27 04:29:51;;;;;;;0.00;0.00;;;;;23.00;99867.00;;;;5069461;28;20055;-77
2022/01/27 04:32:25;;;;;;;0.00;0.00;;;;;23.00;99867.00;;;;5069309;28;20120;-78
2022/01/27 04:35:00;;;;;;;0.00;0.00;;;;;23.00;99863.00;;;;5068959;28;20469;-78
2022/01/27 04:37:37;;;;;;;0.10;0.10;;;;;23.00;99860.00;;;;5068717;28;20060;-78
2022/01/27 04:40:14;;;;;;;0.00;0.00;;;;;23.20;99851.00;;;;5069458;28;20045;-78
2022/01/27 04:45:18;;;;;;;0.00;0.00;;;;;23.20;99859.00;;;;5069286;28;20054;-78
2022/01/27 04:47:53;;;;;;;0.00;0.00;;;;;23.10;99850.00;;;;5068750;28;20086;-78
2022/01/27 04:50:23;;;;;;;0.00;0.00;;;;;23.10;99847.00;;;;5069377;28;20055;-78
2022/01/27 04:52:54;;;;;;;0.00;0.00;;;;;23.10;99862.00;;;;5069144;28;20048;-78
2022/01/27 04:55:25;;;;;;;0.00;0.00;;;;;23.10;99846.00;;;;5068846;28;20063;-78
2022/01/27 04:58:07;;;;;;;0.00;0.00;;;;;23.10;99850.00;;;;5068078;28;20049;-78
2022/01/27 05:00:37;;;;;;;0.00;0.00;;;;;23.20;99857.00;;;;5067340;28;20801;-78
2022/01/27 05:03:20;;;;;;;0.00;0.00;;;;;23.10;99847.00;;;;5068883;28;20048;-78
2022/01/27 05:05:52;;;;;;;0.00;0.00;;;;;23.20;99855.00;;;;5068910;28;20045;-78
2022/01/27 05:08:22;;;;;;;0.00;0.00;;;;;23.30;99866.00;;;;5069050;28;20089;-78
2022/01/27 05:11:02;;;;;;;0.00;0.00;;;;;23.30;99842.00;;;;5068031;28;21008;-78
2022/01/27 05:13:40;;;;;;;0.00;0.00;;;;;23.20;99845.00;;;;5069537;28;20036;-77
2022/01/27 05:16:09;;;;;;;0.00;0.00;;;;;23.30;99857.00;;;;5069022;28;20044;-78
2022/01/27 05:18:39;;;;;;;0.00;0.00;;;;;23.30;99844.00;;;;5083284;28;20052;-78
2022/01/27 05:21:08;;;;;;;0.00;0.00;;;;;23.30;99844.00;;;;5068405;28;20040;-78
2022/01/27 05:23:38;;;;;;;0.00;0.00;;;;;23.30;99842.00;;;;5066967;28;20110;-78
2022/01/27 05:26:08;;;;;;;0.00;0.00;;;;;23.30;99837.00;;;;5068761;28;20047;-78
2022/01/27 05:28:37;;;;;;;0.00;0.00;;;;;23.30;99844.00;;;;5068000;28;20052;-78
2022/01/27 05:31:06;;;;;;;0.70;0.70;;;;;23.30;99828.00;;;;5068786;28;20048;-78
2022/01/27 05:33:36;;;;;;;0.00;0.00;;;;;23.30;99829.00;;;;5068233;28;20169;-78
2022/01/27 05:36:06;;;;;;;0.00;0.00;;;;;23.30;99835.00;;;;5067697;28;20500;-78
2022/01/27 05:38:38;;;;;;;0.00;0.00;;;;;23.30;99836.00;;;;5067816;28;20040;-78
2022/01/27 05:41:08;;;;;;;0.00;0.00;;;;;23.30;99835.00;;;;5068293;28;20040;-78
2022/01/27 05:43:37;;;;;;;0.00;0.00;;;;;23.30;99835.00;;;;5067853;28;20041;-78
2022/01/27 05:46:07;;;;;;;0.00;0.00;;;;;23.30;99844.00;;;;5068527;28;20123;-78
2022/01/27 05:48:36;;;;;;;0.00;0.00;;;;;23.40;99841.00;;;;5083090;28;20565;-78
2022/01/27 05:51:06;;;;;;;1.35;1.30;;;;;23.40;99844.00;;;;5067693;28;20098;-78
2022/01/27 05:53:37;;;;;;;0.00;0.00;;;;;23.50;99818.00;;;;5068204;28;20445;-78
2022/01/27 05:56:06;;;;;;;0.00;0.00;;;;;23.50;99823.00;;;;5068510;28;20106;-78
2022/01/27 05:58:35;;;;;;;0.00;0.00;;;;;23.50;99817.00;;;;5067160;28;20049;-78
2022/01/27 06:01:05;;;;;;;0.00;0.00;;;;;23.40;99825.00;;;;5067745;28;20076;-78
2022/01/27 06:03:35;;;;;;;0.00;0.00;;;;;23.40;99829.00;;;;5067587;28;20056;-78
2022/01/27 06:06:04;;;;;;;0.00;0.00;;;;;23.50;99836.00;;;;5067393;28;20072;-77
2022/01/27 06:08:34;;;;;;;0.00;0.00;;;;;23.50;99830.00;;;;5067465;28;20064;-78
2022/01/27 06:11:03;;;;;;;0.00;0.00;;;;;23.50;99821.00;;;;5067413;28;20037;-78
2022/01/27 06:13:33;;;;;;;2.78;2.63;;;;;23.50;99823.00;;;;5067428;28;20040;-78
2022/01/27 06:16:08;;;;;;;0.00;0.00;;;;;23.50;99832.00;;;;5067212;28;20052;-78
2022/01/27 06:18:39;;;;;;;0.00;0.00;;;;;23.60;99823.00;;;;5067498;28;20090;-78
2022/01/27 06:21:10;;;;;;;0.00;0.00;;;;;23.60;99823.00;;;;5067101;28;20507;-78
2022/01/27 06:23:40;;;;;;;0.00;0.00;;;;;23.60;99844.00;;;;5067403;28;20045;-78
2022/01/27 06:26:09;;;;;;;0.00;0.00;;;;;23.60;99836.00;;;;5064642;28;20040;-78
2022/01/27 06:28:39;;;;;;;0.00;0.00;;;;;23.60;99826.00;;;;5061888;28;20054;-78
2022/01/27 06:31:08;;;;;;;0.00;0.00;;;;;23.50;99837.00;;;;5063166;28;20052;-78
2022/01/27 06:33:38;;;;;;;0.00;0.00;;;;;23.50;99848.00;;;;5066165;28;20040;-78
2022/01/27 06:36:07;;;;;;;0.00;0.00;;;;;23.60;99843.00;;;;5081790;28;20074;-78
2022/01/27 06:38:37;;;;;;;0.00;0.00;;;;;23.60;99849.00;;;;5066839;28;20051;-78
2022/01/27 06:41:07;;;;;;;0.00;0.00;;;;;23.50;99854.00;;;;5067249;28;20503;-78
2022/01/27 06:43:36;;;;;;;0.00;0.00;;;;;23.50;99857.00;;;;5066659;28;20407;-78
2022/01/27 06:46:06;;;;;;;0.00;0.00;;;;;23.60;99843.00;;;;5065311;28;20136;-79
2022/01/27 06:48:35;;;;;;;0.00;0.00;;;;;23.50;99854.00;;;;5066820;28;20074;-79
2022/01/27 06:51:05;;;;;;;0.00;0.00;;;;;23.50;99849.00;;;;5067179;28;20048;-79
2022/01/27 06:53:35;;;;;;;0.00;0.00;;;;;23.50;99839.00;;;;5066576;28;20044;-79
2022/01/27 06:56:04;;;;;;;0.00;0.00;;;;;23.40;99834.00;;;;5082974;28;20416;-79
2022/01/27 06:58:36;;;;;;;0.00;0.00;;;;;23.50;99846.00;;;;5066019;28;20048;-79
2022/01/27 07:01:06;;;;;;;0.00;0.00;;;;;23.50;99843.00;;;;5066530;28;20139;-79
2022/01/27 07:03:35;;;;;;;0.00;0.00;;;;;23.50;99835.00;;;;5066541;28;20036;-79
2022/01/27 07:06:05;;;;;;;0.00;0.00;;;;;23.40;99840.00;;;;5066324;28;20546;-79
2022/01/27 07:08:34;;;;;;;0.00;0.00;;;;;23.50;99841.00;;;;5066348;28;20052;-80
2022/01/27 07:11:04;;;;;;;0.00;0.00;;;;;23.40;99842.00;;;;5066379;28;20079;-79
2022/01/27 07:13:33;;;;;;;0.00;0.00;;;;;23.40;99832.00;;;;5066000;28;20044;-79
2022/01/27 07:16:03;;;;;;;0.00;0.00;;;;;23.40;99841.00;;;;5066086;28;20049;-79
2022/01/27 07:18:33;;;;;;;0.00;0.00;;;;;23.40;99851.00;;;;5065443;28;20458;-80
2022/01/27 07:21:03;;;;;;;0.00;0.00;;;;;23.40;99847.00;;;;5065119;28;20420;-79
2022/01/27 07:23:33;;;;;;;;;;;;;23.40;99851.00;;;;5082916;28;20045;-78
2022/01/27 07:26:03;;;;;;;0.00;0.00;;;;;23.40;99850.00;;;;5066538;28;20431;-79
2022/01/27 07:28:33;;;;;;;0.00;0.00;;;;;23.40;99843.00;;;;5066188;28;20044;-78
2022/01/27 07:31:02;;;;;;;0.00;0.00;;;;;23.40;99847.00;;;;5066292;28;20300;-78
2022/01/27 07:33:32;;;;;;;0.00;0.00;;;;;23.40;99847.00;;;;5064717;28;20053;-80
2022/01/27 07:36:01;;;;;;;0.00;0.00;;;;;23.40;99853.00;;;;5066415;28;20588;-79
2022/01/27 07:38:31;;;;;;;0.00;0.00;;;;;23.40;99855.00;;;;5066632;28;20397;-79
2022/01/27 07:41:01;;;;;;;0.00;0.00;;;;;23.30;99847.00;;;;5064149;28;20097;-78
2022/01/27 07:43:31;;;;;;;0.00;0.00;;;;;23.30;99860.00;;;;5065268;28;20055;-78
2022/01/27 07:46:03;;;;;;;0.00;0.00;;;;;23.20;99864.00;;;;5079026;28;20502;-79
2022/01/27 07:48:33;;;;;;;0.00;0.00;;;;;23.00;99873.00;;;;5065614;28;20523;-79
2022/01/27 07:51:03;;;;;;;0.00;0.00;;;;;23.00;99862.00;;;;5065763;28;20131;-80
2022/01/27 07:53:34;;;;;;;0.00;0.00;;;;;22.80;99879.00;;;;5066099;28;20055;-82
2022/01/27 07:56:24;;;;;;;0.00;0.00;;;;;22.80;99871.00;;;;5066076;28;20123;-78
2022/01/27 07:58:54;;;;;;;0.00;0.00;;;;;22.70;99874.00;;;;5065257;28;20049;-79
2022/01/27 08:01:24;;;;;;;0.00;0.00;;;;;22.60;99874.00;;;;5066864;28;20078;-79
2022/01/27 08:03:53;;;;;;;0.00;0.00;;;;;22.50;99882.00;;;;5065676;28;20048;-78
2022/01/27 08:06:23;;;;;;;0.00;0.00;;;;;22.40;99889.00;;;;5067149;28;20055;-78
2022/01/27 08:08:52;;;;;;;0.00;0.00;;;;;22.30;99880.00;;;;5065874;28;20535;-77
2022/01/27 08:11:22;;;;;;;0.00;0.00;;;;;22.30;99887.00;;;;5081354;28;20055;-80
2022/01/27 08:13:51;;;;;;;0.00;0.00;;;;;22.30;99891.00;;;;5065369;28;20531;-76
2022/01/27 08:16:21;;;;;;;0.00;0.00;;;;;22.30;99885.00;;;;5065464;28;20075;-77
2022/01/27 08:18:50;;;;;;;0.00;0.00;;;;;22.30;99897.00;;;;5067671;28;20080;-79
2022/01/27 08:21:20;;;;;;;0.00;0.00;;;;;22.30;99885.00;;;;5069418;28;20059;-79
2022/01/27 08:23:51;;;;;;;0.00;0.00;;;;;22.30;99897.00;;;;5069030;28;20044;-78
2022/01/27 08:26:38;;;;;;;0.00;0.00;;;;;22.40;99894.00;;;;5068544;28;20052;-77
2022/01/27 08:29:15;;;;;;;0.00;0.00;;;;;22.40;99896.00;;;;5070181;28;20529;-77
2022/01/27 08:32:06;;;;;;;0.00;0.00;;;;;22.30;99899.00;;;;5069614;28;20519;-77
2022/01/27 08:34:41;;;;;;;0.10;0.10;;;;;22.40;99907.00;;;;5069264;28;20040;-78
2022/01/27 08:37:21;;;;;;;0.00;0.00;;;;;22.40;99917.00;;;;5068626;28;20048;-79
2022/01/27 08:39:50;;;;;;;0.00;0.00;;;;;22.40;99921.00;;;;5069529;28;20051;-77
2022/01/27 08:42:20;;;;;;;0.00;0.00;;;;;22.40;99913.00;;;;5069573;28;20040;-81
2022/01/27 08:44:49;;;;;;;0.00;0.00;;;;;22.40;99919.00;;;;5069130;28;20770;-78
2022/01/27 08:47:19;;;;;;;0.00;0.00;;;;;22.40;99917.00;;;;5069776;28;20036;-79
2022/01/27 08:49:48;;;;;;;0.00;0.00;;;;;22.30;99929.00;;;;5068844;28;20048;-79
2022/01/27 08:52:17;;;;;;;0.00;0.00;;;;;22.30;99919.00;;;;5069317;28;20037;-79
2022/01/27 08:54:47;;;;;;;0.00;0.00;;;;;22.30;99924.00;;;;5069571;28;20132;-79
2022/01/27 08:57:16;;;;;;;0.00;0.00;;;;;22.30;99924.00;;;;5068508;28;20503;-77
2022/01/27 08:59:49;;;;;;;0.00;0.00;;;;;22.30;99926.00;;;;5084386;28;20526;-78
2022/01/27 09:02:19;;;;;;;0.00;0.00;;;;;22.30;99928.00;;;;5068740;28;20047;-79
2022/01/27 09:04:49;;;;;;;0.00;0.00;;;;;22.30;99916.00;;;;5068981;28;20051;-78
2022/01/27 09:07:18;;;;;;;0.00;0.00;;;;;22.30;99926.00;;;;5068333;28;20400;-78
2022/01/27 09:09:48;;;;;;;0.00;0.00;;;;;22.30;99931.00;;;;5068923;28;20044;-78
2022/01/27 09:12:17;;;;;;;0.00;0.00;;;;;22.30;99922.00;;;;5068330;28;20083;-79
2022/01/27 09:14:47;;;;;;;0.00;0.00;;;;;22.30;99937.00;;;;5067814;28;20044;-78
2022/01/27 09:17:16;;;;;;;0.00;0.00;;;;;22.30;99921.00;;;;5068832;28;20123;-78
2022/01/27 09:19:55;;;;;;;0.00;0.00;;;;;22.20;99919.00;;;;5069014;28;21213;-78
2022/01/27 09:22:25;;;;;;;0.00;0.00;;;;;22.30;99936.00;;;;5068633;28;20040;-78
2022/01/27 09:24:58;;;;;;;0.00;0.00;;;;;22.30;99924.00;;;;5068080;28;20037;-78
2022/01/27 09:27:28;;;;;;;0.00;0.00;;;;;22.30;99938.00;;;;5068631;28;20045;-78
2022/01/27 09:29:58;;;;;;;0.00;0.00;;;;;22.30;99943.00;;;;5068031;28;20106;-78
2022/01/27 09:32:28;;;;;;;0.00;0.00;;;;;22.30;99939.00;;;;5068824;28;20052;-78
2022/01/27 09:35:03;;;;;;;0.00;0.00;;;;;22.30;99963.00;;;;5068148;28;20129;-77
2022/01/27 09:37:33;;;;;;;0.00;0.00;;;;;22.30;99967.00;;;;5067733;28;20068;-78
2022/01/27 09:40:06;;;;;;;0.47;0.40;;;;;22.30;99982.00;;;;5067928;28;20040;-78
2022/01/27 09:42:37;;;;;;;0.00;0.00;;;;;22.40;99974.00;;;;5068271;28;20128;-77
2022/01/27 09:45:09;;;;;;;0.00;0.00;;;;;22.40;99975.00;;;;5068984;28;20051;-78
2022/01/27 09:47:41;;;;;;;0.00;0.00;;;;;22.40;99982.00;;;;5068097;28;20044;-77
2022/01/27 09:52:44;;;;;;;0.00;0.00;;;;;22.50;99990.00;;;;5083950;28;20625;-78
2022/01/27 09:55:13;;;;;;;0.00;0.00;;;;;22.50;99990.00;;;;5068321;28;20174;-78
2022/01/27 09:57:42;;;;;;;1.00;0.55;;;;;22.40;100016.00;;;;5067346;28;20511;-78
2022/01/27 10:00:13;;;;;;;0.00;0.00;;;;;22.50;100008.00;;;;5067605;28;20098;-77
2022/01/27 10:03:09;;;;;;;;;;;;;22.50;100011.00;;;;5068321;28;20443;-80
2022/01/27 10:05:40;;;;;;;0.00;0.00;;;;;22.50;100019.00;;;;5066364;28;20337;-81
2022/01/27 10:08:14;;;;;;;0.00;0.00;;;;;22.40;100024.00;;;;5067055;28;20127;-77
2022/01/27 10:10:50;;;;;;;0.00;0.00;;;;;22.40;100035.00;;;;5063980;28;20047;-78
2022/01/27 10:13:33;;;;;;;0.00;0.00;;;;;22.50;100023.00;;;;5065679;28;20048;-79
2022/01/27 10:16:04;;;;;;;0.00;0.00;;;;;22.50;100017.00;;;;5067215;28;20089;-79
2022/01/27 10:18:39;;;;;;;0.00;0.00;;;;;22.50;100047.00;;;;5067068;28;20045;-82
2022/01/27 10:21:13;;;;;;;0.00;0.00;;;;;22.40;100044.00;;;;5066614;28;20119;-81
2022/01/27 10:23:44;;;;;;;0.00;0.00;;;;;22.50;100060.00;;;;5067313;28;20044;-82
2022/01/27 10:26:19;;;;;;;0.08;0.08;;;;;22.50;100044.00;;;;5066663;28;20041;-82
2022/01/27 10:29:09;;;;;;;0.00;0.00;;;;;22.40;100060.00;;;;5065748;28;20057;-80
2022/01/27 10:31:39;;;;;;;0.00;0.00;;;;;22.40;100057.00;;;;5067087;28;20045;-81
2022/01/27 10:34:10;;;;;;;0.00;0.00;;;;;22.40;100062.00;;;;5082799;28;20064;-80
2022/01/27 10:36:43;;;;;;;0.00;0.00;;;;;22.40;100058.00;;;;5067691;28;20519;-80
2022/01/27 10:39:17;;;;;;;0.00;0.00;;;;;22.40;100067.00;;;;5082557;28;20052;-82
2022/01/27 10:42:07;;;;;;;0.00;0.00;;;;;22.40;100086.00;;;;5065437;28;20044;-79
2022/01/27 10:44:55;;;;;;;0.00;0.00;;;;;22.40;100091.00;;;;5082618;28;20055;-81
2022/01/27 10:47:31;;;;;;;0.00;0.00;;;;;22.40;100090.00;;;;5065349;28;20139;-82
2022/01/27 10:50:04;;;;;;;0.00;0.00;;;;;22.40;100108.00;;;;5066701;28;20040;-82
2022/01/27 10:52:45;;;;;;;0.00;0.00;;;;;22.30;100117.00;;;;5066579;28;20095;-82
2022/01/27 10:55:20;;;;;;;0.00;0.00;;;;;22.50;100111.00;;;;5067240;28;20051;-82
2022/01/27 10:57:50;;;;;;;0.00;0.00;;;;;22.40;100117.00;;;;5066527;28;20044;-81
2022/01/27 11:00:23;;;;;;;0.00;0.00;;;;;22.40;100137.00;;;;5067253;28;20083;-82
2022/01/27 11:03:03;;;;;;;0.00;0.00;;;;;22.40;100140.00;;;;5066892;28;20033;-84
2022/01/27 11:05:41;;;;;;;0.00;0.00;;;;;22.30;100152.00;;;;5082464;28;20491;-81
2022/01/27 11:08:11;;;;;;;0.00;0.00;;;;;22.20;100142.00;;;;5066420;28;20059;-82
2022/01/27 11:10:45;;;;;;;0.00;0.00;;;;;22.20;100133.00;;;;5066536;28;20152;-84
2022/01/27 11:13:17;;;;;;;0.00;0.00;;;;;22.00;100157.00;;;;5066036;28;20040;-84
2022/01/27 11:15:48;;;;;;;0.00;0.00;;;;;22.00;100161.00;;;;5066804;28;20154;-85
2022/01/27 11:18:21;;;;;;;0.00;0.00;;;;;22.00;100158.00;;;;5066338;28;20052;-83
2022/01/27 11:21:00;;;;;;;0.00;0.00;;;;;22.00;100152.00;;;;5065070;28;20056;-84
2022/01/27 11:26:16;;;;;;;0.20;0.10;;;;;22.00;100162.00;;;;5067373;28;20135;-82
2022/01/27 11:28:48;;;;;;;0.00;0.00;;;;;22.10;100171.00;;;;5065087;28;20048;-84
2022/01/27 11:31:25;;;;;;;0.00;0.00;;;;;22.10;100161.00;;;;5066146;28;20078;-82
2022/01/27 11:34:07;;;;;;;0.00;0.00;;;;;22.10;100160.00;;;;5081167;28;20128;-81
2022/01/27 11:36:38;;;;;;;0.00;0.00;;;;;22.10;100171.00;;;;5066245;28;20167;-83
2022/01/27 11:39:11;;;;;;;0.00;0.00;;;;;22.20;100174.00;;;;5065024;28;20106;-84
2022/01/27 11:41:50;;;;;;;0.00;0.00;;;;;22.30;100164.00;;;;5066468;28;20041;-83
2022/01/27 11:44:28;;;;;;;0.00;0.00;;;;;22.40;100178.00;;;;5066652;28;20094;-83
2022/01/27 11:47:16;;;;;;;0.00;0.00;;;;;22.40;100169.00;;;;5066687;28;20511;-83
2022/01/27 11:50:11;;;;;;;0.00;0.00;;;;;22.60;100171.00;;;;5065108;28;20056;-82
2022/01/27 11:52:56;;;;;;;0.00;0.00;;;;;22.80;100175.00;;;;5069367;28;20045;-82
2022/01/27 11:55:26;;;;;;;0.00;0.00;;;;;22.90;100180.00;;;;5085628;28;20053;-83
2022/01/27 11:58:11;;;;;;;0.00;0.00;;;;;22.90;100170.00;;;;5069745;28;20131;-83
2022/01/27 12:01:02;;;;;;;0.00;0.00;;;;;22.80;100184.00;;;;5070447;28;21027;-82
2022/01/27 12:03:32;;;;;;;0.00;0.00;;;;;22.80;100180.00;;;;5069481;28;20793;-80
2022/01/27 12:06:16;;;;;;;0.00;0.00;;;;;22.70;100178.00;;;;5069823;28;20044;-83
2022/01/27 12:08:46;;;;;;;0.00;0.00;;;;;22.80;100174.00;;;;5084030;28;20060;-82
2022/01/27 12:11:45;;;;;;;2.38;0.20;;;;;22.70;100193.00;;;;5069817;28;20055;-80
2022/01/27 12:14:22;;;;;;;0.00;0.00;;;;;22.70;100191.00;;;;5069756;28;20051;-80
2022/01/27 12:17:13;;;;;;;0.00;0.00;;;;;22.80;100193.00;;;;5069730;28;20041;-83
2022/01/27 12:19:57;;;;;;;0.00;0.00;;;;;22.90;100211.00;;;;5061352;28;20053;-82
2022/01/27 12:22:52;;;;;;;0.00;0.00;;;;;22.70;100221.00;;;;5069744;28;20045;-79
2022/01/27 12:25:22;;;;;;;0.00;0.00;;;;;22.80;100201.00;;;;5069255;28;20044;-82
2022/01/27 12:27:54;;;;;;;0.00;0.00;;;;;22.70;100212.00;;;;5069788;28;20051;-80
2022/01/27 12:30:25;;;;;;;0.00;0.00;;;;;22.60;100215.00;;;;5068913;28;20490;-81
2022/01/27 12:32:55;;;;;;;0.00;0.00;;;;;22.50;100229.00;;;;5069657;28;20040;-82
2022/01/27 12:35:25;;;;;;;0.00;0.00;;;;;22.50;100224.00;;;;5069441;28;20090;-79
2022/01/27 12:37:57;;;;;;;0.00;0.00;;;;;22.40;100232.00;;;;5069180;28;20543;-80
2022/01/27 12:40:30;;;;;;;0.00;0.00;;;;;22.40;100241.00;;;;5069532;28;20045;-81
2022/01/27 12:43:12;;;;;;;0.00;0.00;;;;;22.40;100247.00;;;;5068611;28;20090;-80
2022/01/27 12:45:43;;;;;;;;;;;;;22.40;100258.00;;;;5069251;28;20054;-80
2022/01/27 12:48:21;;;;;;;0.00;0.00;;;;;22.40;100246.00;;;;5068154;28;19921;-79
2022/01/27 12:51:01;;;;;;;0.00;0.00;;;;;22.30;100276.00;;;;5069539;28;20600;-80
2022/01/27 12:53:32;;;;;;;0.00;0.00;;;;;22.30;100278.00;;;;5068126;28;20045;-80
2022/01/27 12:56:08;;;;;;;0.00;0.00;;;;;22.30;100261.00;;;;5068837;28;20053;-80
2022/01/27 12:58:38;;;;;;;0.00;0.00;;;;;22.40;100271.00;;;;5068967;28;20041;-81
2022/01/27 13:01:11;;;;;;;0.00;0.00;;;;;22.40;100265.00;;;;5068605;28;20082;-80
2022/01/27 13:04:00;;;;;;;0.00;0.00;;;;;22.40;100274.00;;;;5068358;28;20033;-79
2022/01/27 13:06:30;;;;;;;0.00;0.00;;;;;22.50;100270.00;;;;5068633;28;20089;-81
2022/01/27 13:09:13;;;;;;;0.00;0.00;;;;;22.40;100272.00;;;;5067225;28;20056;-80
2022/01/27 13:11:45;;;;;;;0.00;0.00;;;;;22.50;100264.00;;;;5067768;28;20048;-79
2022/01/27 13:14:15;;;;;;;0.00;0.00;;;;;22.80;100275.00;;;;5067859;28;20045;-83
2022/01/27 13:16:51;;;;;;;0.00;0.00;;;;;22.80;100288.00;;;;5067855;28;20048;-80
2022/01/27 13:19:38;;;;;;;0.00;0.00;;;;;22.70;100274.00;;;;5068514;28;20161;-80
2022/01/27 13:22:14;;;;;;;0.00;0.00;;;;;22.60;100289.00;;;;5068648;28;20438;-86
2022/01/27 13:24:45;;;;;;;0.00;0.00;;;;;22.50;100261.00;;;;5067987;28;20053;-81
2022/01/27 13:27:15;;;;;;;0.00;0.00;;;;;22.60;100293.00;;;;5068231;28;20123;-84